createdAt,value
2022-12-13T00:01:59.905Z,96016.38
2022-12-13T00:04:28.576Z,95998.75
2022-12-13T00:06:58.224Z,96014.59
2022-12-13T00:09:26.440Z,96008.41
2022-12-13T00:11:54.846Z,95861.50
2022-12-13T00:14:23.193Z,95785.88
2022-12-13T00:16:51.687Z,95976.53
2022-12-13T00:19:20.303Z,96030.19
2022-12-13T00:21:48.823Z,95964.63
2022-12-13T00:24:18.415Z,96016.41
2022-12-13T00:26:46.797Z,96022.63
2022-12-13T00:29:15.393Z,96006.91
2022-12-13T00:31:58.756Z,96006.47
2022-12-13T00:34:27.497Z,96002.06
2022-12-13T00:36:55.822Z,95990.81
2022-12-13T00:39:26.023Z,95994.66
2022-12-13T00:41:54.290Z,95981.50
2022-12-13T00:44:22.648Z,96015.28
2022-12-13T00:46:51.936Z,96002.50
2022-12-13T00:49:20.432Z,95970.88
2022-12-13T00:51:49.812Z,95955.69
2022-12-13T00:54:18.827Z,96013.63
2022-12-13T00:56:48.460Z,95926.78
2022-12-13T00:59:16.858Z,95948.16
2022-12-13T01:01:47.002Z,95989.75
2022-12-13T01:04:17.284Z,95931.53
2022-12-13T01:06:49.741Z,95947.63
2022-12-13T01:09:21.254Z,95943.47
2022-12-13T01:11:51.740Z,95908.50
2022-12-13T01:14:20.644Z,95842.72
2022-12-13T01:16:49.088Z,95938.00
2022-12-13T01:19:17.566Z,95935.50
2022-12-13T01:21:45.765Z,95967.59
2022-12-13T01:24:14.591Z,96053.81
2022-12-13T01:26:42.961Z,95955.50
2022-12-13T01:29:12.610Z,95944.59
2022-12-13T01:31:41.800Z,96076.44
2022-12-13T01:34:11.371Z,95899.84
2022-12-13T01:36:41.211Z,95965.06
2022-12-13T01:39:15.018Z,95972.72
2022-12-13T01:41:45.459Z,95981.88
2022-12-13T01:45:03.303Z,95945.78
2022-12-13T01:47:38.148Z,95982.75
2022-12-13T01:50:11.898Z,95901.50
2022-12-13T01:52:41.271Z,95846.03
2022-12-13T01:55:10.789Z,95919.47
2022-12-13T01:57:46.054Z,95926.78
2022-12-13T02:00:17.591Z,95945.84
2022-12-13T02:02:47.034Z,95918.72
2022-12-13T02:05:19.981Z,95945.69
2022-12-13T02:07:49.850Z,95928.84
2022-12-13T02:10:19.072Z,95959.28
2022-12-13T02:12:52.428Z,95945.81
2022-12-13T02:15:23.328Z,95942.06
2022-12-13T02:18:07.865Z,95921.91
2022-12-13T02:21:15.395Z,95934.56
2022-12-13T02:24:24.903Z,95917.72
2022-12-13T02:27:14.945Z,95912.97
2022-12-13T02:30:16.111Z,95909.56
2022-12-13T02:33:21.687Z,95923.19
2022-12-13T02:35:59.524Z,95931.28
2022-12-13T02:38:36.092Z,95880.56
2022-12-13T02:41:15.781Z,95908.56
2022-12-13T02:43:51.176Z,95920.28
2022-12-13T02:46:24.151Z,95953.19
2022-12-13T02:48:56.424Z,95890.28
2022-12-13T02:51:26.267Z,95911.19
2022-12-13T02:53:54.486Z,95898.06
2022-12-13T02:56:22.720Z,95896.63
2022-12-13T02:58:56.526Z,95910.47
2022-12-13T03:02:00.683Z,95896.78
2022-12-13T03:05:05.582Z,95909.66
2022-12-13T03:07:46.071Z,95902.81
2022-12-13T03:10:21.815Z,95919.75
2022-12-13T03:13:14.092Z,95895.28
2022-12-13T03:15:49.133Z,95862.13
2022-12-13T03:18:22.477Z,95909.22
2022-12-13T03:20:53.220Z,95877.63
2022-12-13T03:23:23.025Z,95904.97
2022-12-13T03:25:55.121Z,95869.41
2022-12-13T03:28:23.753Z,95839.09
2022-12-13T03:30:52.130Z,95903.88
2022-12-13T03:33:22.608Z,95911.44
2022-12-13T03:35:50.873Z,95877.53
2022-12-13T03:38:23.467Z,95857.09
2022-12-13T03:40:54.971Z,95879.72
2022-12-13T03:43:23.844Z,95851.47
2022-12-13T03:45:52.801Z,95859.03
2022-12-13T03:48:23.843Z,95888.44
2022-12-13T03:50:54.345Z,95826.81
2022-12-13T03:53:33.035Z,95873.69
2022-12-13T03:56:03.796Z,95838.88
2022-12-13T03:58:35.806Z,95860.41
2022-12-13T04:01:11.023Z,95866.78
2022-12-13T04:03:42.432Z,95751.69
2022-12-13T04:06:12.510Z,95877.63
2022-12-13T04:08:51.013Z,95863.78
2022-12-13T04:11:42.373Z,95856.66
2022-12-13T04:14:12.049Z,95886.03
2022-12-13T04:16:40.342Z,95892.44
2022-12-13T04:19:09.923Z,95876.16
2022-12-13T04:21:38.093Z,95874.75
2022-12-13T04:24:06.980Z,95859.69
2022-12-13T04:26:35.181Z,95874.00
2022-12-13T04:29:03.378Z,95871.34
2022-12-13T04:31:31.592Z,95823.47
2022-12-13T04:33:59.938Z,95854.22
2022-12-13T04:36:31.895Z,95854.50
2022-12-13T04:39:02.132Z,95863.84
2022-12-13T04:41:34.610Z,95855.03
2022-12-13T04:44:04.043Z,95865.50
2022-12-13T04:46:32.495Z,95879.84
2022-12-13T04:49:00.768Z,95846.84
2022-12-13T04:51:30.549Z,95866.81
2022-12-13T04:54:23.707Z,95864.88
2022-12-13T04:56:47.023Z,95840.41
2022-12-13T04:59:16.099Z,95910.00
2022-12-13T05:01:44.414Z,95814.16
2022-12-13T05:04:12.880Z,95859.56
2022-12-13T05:06:43.032Z,95920.34
2022-12-13T05:09:11.741Z,95837.66
2022-12-13T05:11:45.695Z,95893.72
2022-12-13T05:14:14.406Z,95858.09
2022-12-13T05:16:52.448Z,95845.94
2022-12-13T05:19:20.914Z,95889.22
2022-12-13T05:21:51.184Z,95821.50
2022-12-13T05:24:19.601Z,95867.59
2022-12-13T05:26:47.934Z,95839.94
2022-12-13T05:29:16.250Z,95829.88
2022-12-13T05:31:44.973Z,95685.09
2022-12-13T05:34:13.580Z,95840.09
2022-12-13T05:36:42.100Z,95908.63
2022-12-13T05:39:29.090Z,95852.66
2022-12-13T05:42:01.544Z,95865.34
2022-12-13T05:44:32.410Z,95851.22
2022-12-13T05:47:02.503Z,95894.53
2022-12-13T05:49:32.493Z,95806.44
2022-12-13T05:52:00.923Z,95874.97
2022-12-13T05:54:30.458Z,95851.44
2022-12-13T05:56:58.672Z,95845.22
2022-12-13T05:59:26.925Z,95814.81
2022-12-13T06:01:55.237Z,95790.56
2022-12-13T06:04:23.741Z,95817.34
2022-12-13T06:06:52.635Z,95716.56
2022-12-13T06:09:21.388Z,95857.53
2022-12-13T06:11:51.280Z,95842.03
2022-12-13T06:14:22.817Z,95854.50
2022-12-13T06:16:53.180Z,95833.25
2022-12-13T06:19:22.168Z,95843.91
2022-12-13T06:21:50.973Z,95872.56
2022-12-13T06:24:21.818Z,95843.84
2022-12-13T06:26:52.416Z,95856.38
2022-12-13T06:29:25.501Z,95760.69
2022-12-13T06:32:01.846Z,95858.44
2022-12-13T06:34:36.681Z,95818.06
2022-12-13T06:37:08.929Z,95833.03
2022-12-13T06:39:37.325Z,95858.88
2022-12-13T06:42:11.557Z,95815.81
2022-12-13T06:44:41.548Z,95839.13
2022-12-13T06:47:10.174Z,95846.25
2022-12-13T06:49:43.979Z,95854.50
2022-12-13T06:52:14.844Z,95824.00
2022-12-13T06:54:43.857Z,95879.06
2022-12-13T06:57:14.160Z,95848.22
2022-12-13T06:59:42.889Z,95792.41
2022-12-13T07:02:24.195Z,95798.44
2022-12-13T07:04:55.688Z,95874.09
2022-12-13T07:07:27.024Z,95829.88
2022-12-13T07:09:55.638Z,95828.16
2022-12-13T07:12:25.309Z,95874.16
2022-12-13T07:14:54.914Z,95832.78
2022-12-13T07:17:31.807Z,95868.59
2022-12-13T07:20:07.582Z,95884.59
2022-12-13T07:22:39.922Z,95845.34
2022-12-13T07:25:28.235Z,95865.03
2022-12-13T07:28:01.209Z,95859.50
2022-12-13T07:30:40.675Z,95846.69
2022-12-13T07:33:11.406Z,95833.19
2022-12-13T07:35:39.629Z,95850.59
2022-12-13T07:38:09.399Z,95837.38
2022-12-13T07:40:40.389Z,95835.53
2022-12-13T07:43:13.099Z,95879.53
2022-12-13T07:45:41.553Z,95841.47
2022-12-13T07:48:09.866Z,95898.72
2022-12-13T07:50:38.904Z,95859.31
2022-12-13T07:53:09.330Z,95907.25
2022-12-13T07:55:38.693Z,95782.69
2022-12-13T07:58:10.705Z,95837.81
2022-12-13T08:00:40.376Z,95872.94
2022-12-13T08:03:25.050Z,95875.19
2022-12-13T08:06:01.173Z,95921.47
2022-12-13T08:08:31.515Z,95879.00
2022-12-13T08:11:03.274Z,95734.25
2022-12-13T08:13:32.972Z,95896.63
2022-12-13T08:16:01.939Z,95865.31
2022-12-13T08:18:30.272Z,95915.91
2022-12-13T08:21:02.680Z,95888.78
2022-12-13T08:23:33.072Z,95905.50
2022-12-13T08:26:02.669Z,95892.84
2022-12-13T08:28:33.529Z,95852.03
2022-12-13T08:31:05.643Z,95932.28
2022-12-13T08:33:35.135Z,95887.53
2022-12-13T08:36:11.159Z,95895.72
2022-12-13T08:38:39.737Z,95889.41
2022-12-13T08:41:08.818Z,95852.06
2022-12-13T08:43:38.512Z,95822.88
2022-12-13T08:46:07.838Z,95878.41
2022-12-13T08:48:36.241Z,95861.06
2022-12-13T08:51:25.601Z,95873.41
2022-12-13T08:54:10.493Z,95879.97
2022-12-13T08:56:43.759Z,95869.34
2022-12-13T08:59:16.044Z,95901.75
2022-12-13T09:01:44.484Z,95901.66
2022-12-13T09:04:31.584Z,95902.75
2022-12-13T09:07:01.821Z,95895.31
2022-12-13T09:09:30.574Z,95907.19
2022-12-13T09:11:59.551Z,95874.69
2022-12-13T09:14:33.791Z,95898.00
2022-12-13T09:17:03.792Z,95894.34
2022-12-13T09:19:37.376Z,95890.09
2022-12-13T09:22:06.064Z,95884.13
2022-12-13T09:24:42.777Z,95879.44
2022-12-13T09:27:27.464Z,95867.81
2022-12-13T09:29:58.016Z,95825.78
2022-12-13T09:32:28.123Z,95860.97
2022-12-13T09:34:56.866Z,95847.72
2022-12-13T09:37:25.335Z,95886.09
2022-12-13T09:39:54.760Z,95900.91
2022-12-13T09:42:30.748Z,95839.25
2022-12-13T09:45:05.372Z,95867.56
2022-12-13T09:47:38.645Z,95878.63
2022-12-13T09:50:23.360Z,95872.66
2022-12-13T09:52:59.816Z,95865.25
2022-12-13T09:55:32.899Z,95860.47
2022-12-13T09:58:07.237Z,95893.59
2022-12-13T10:00:37.915Z,95893.59
2022-12-13T10:03:07.703Z,95847.47
2022-12-13T10:05:39.906Z,95863.22
2022-12-13T10:08:14.213Z,95724.34
2022-12-13T10:10:43.602Z,95882.91
2022-12-13T10:13:19.526Z,95909.09
2022-12-13T10:15:53.185Z,95775.69
2022-12-13T10:18:33.805Z,95870.97
2022-12-13T10:21:05.441Z,95846.03
2022-12-13T10:23:59.351Z,95836.13
2022-12-13T10:26:24.028Z,95825.22
2022-12-13T10:29:03.334Z,95867.84
2022-12-13T10:31:42.385Z,95772.16
2022-12-13T10:34:23.726Z,95856.88
2022-12-13T10:36:52.772Z,95835.84
2022-12-13T10:39:39.569Z,95826.50
2022-12-13T10:42:14.503Z,95841.00
2022-12-13T10:45:14.616Z,95854.31
2022-12-13T10:47:47.063Z,95825.31
2022-12-13T10:50:27.510Z,95804.44
2022-12-13T10:53:10.269Z,95812.16
2022-12-13T10:55:39.061Z,95810.63
2022-12-13T10:58:18.111Z,95841.63
2022-12-13T11:00:49.336Z,95857.41
2022-12-13T11:03:33.226Z,95784.94
2022-12-13T11:06:07.554Z,95758.81
2022-12-13T11:08:36.141Z,95846.16
2022-12-13T11:11:07.482Z,95810.97
2022-12-13T11:13:39.512Z,95805.75
2022-12-13T11:16:23.986Z,95808.47
2022-12-13T11:18:57.078Z,95815.06
2022-12-13T11:21:29.407Z,95755.75
2022-12-13T11:24:01.707Z,95899.44
2022-12-13T11:26:32.576Z,95785.09
2022-12-13T11:29:34.356Z,95818.69
2022-12-13T11:32:08.653Z,95797.84
2022-12-13T11:34:50.570Z,95818.78
2022-12-13T11:37:27.432Z,95762.78
2022-12-13T11:40:02.126Z,95778.16
2022-12-13T11:42:39.230Z,95802.94
2022-12-13T11:45:22.868Z,95811.53
2022-12-13T11:48:07.735Z,95739.22
2022-12-13T11:50:42.153Z,95763.97
2022-12-13T11:53:28.877Z,95727.19
2022-12-13T11:56:06.459Z,95763.88
2022-12-13T11:59:02.633Z,95791.63
2022-12-13T12:01:39.970Z,95739.66
2022-12-13T12:04:19.341Z,95732.47
2022-12-13T12:06:54.884Z,95779.38
2022-12-13T12:09:27.021Z,95723.19
2022-12-13T12:12:03.128Z,95779.63
2022-12-13T12:14:42.561Z,95761.38
2022-12-13T12:17:15.367Z,95639.94
2022-12-13T12:19:46.722Z,95735.53
2022-12-13T12:22:33.191Z,95766.91
2022-12-13T12:25:42.531Z,95767.59
2022-12-13T12:28:24.607Z,95762.53
2022-12-13T12:31:02.065Z,95743.09
2022-12-13T12:33:40.630Z,95742.84
2022-12-13T12:36:45.252Z,95745.03
2022-12-13T12:39:37.203Z,95761.44
2022-12-13T12:43:03.713Z,95742.94
2022-12-13T12:45:57.709Z,95745.53
2022-12-13T12:49:06.543Z,95771.97
2022-12-13T12:51:53.463Z,95742.66
2022-12-13T12:54:47.415Z,95756.00
2022-12-13T12:57:31.233Z,95784.59
2022-12-13T13:00:12.152Z,95748.84
2022-12-13T13:03:01.916Z,95742.56
2022-12-13T13:06:14.734Z,95772.38
2022-12-13T13:08:55.477Z,95777.44
2022-12-13T13:11:43.159Z,95733.16
2022-12-13T13:14:37.016Z,95744.97
2022-12-13T13:17:56.043Z,95752.66
2022-12-13T13:20:29.169Z,95758.69
2022-12-13T13:23:39.065Z,95766.31
2022-12-13T13:26:23.338Z,95732.13
2022-12-13T13:28:54.123Z,95712.38
2022-12-13T13:31:25.642Z,95730.47
2022-12-13T13:34:01.449Z,95708.91
2022-12-13T13:36:56.434Z,95719.69
2022-12-13T13:40:04.365Z,95752.34
2022-12-13T13:42:37.176Z,95731.56
2022-12-13T13:45:27.825Z,95718.41
2022-12-13T13:48:24.141Z,95720.16
2022-12-13T13:55:57.251Z,95731.66
2022-12-13T13:59:17.297Z,95724.34
2022-12-13T14:02:30.715Z,95733.28
2022-12-13T14:05:54.310Z,95729.34
2022-12-13T14:08:46.428Z,95705.16
2022-12-13T14:12:05.806Z,95749.16
2022-12-13T14:15:52.366Z,95695.38
2022-12-13T14:19:16.712Z,95709.66
2022-12-13T14:22:18.487Z,95698.69
2022-12-13T14:25:17.361Z,95664.16
2022-12-13T14:27:55.573Z,95730.91
2022-12-13T14:30:42.279Z,95587.38
2022-12-13T14:33:24.758Z,95732.09
2022-12-13T14:35:59.018Z,95759.50
2022-12-13T14:38:36.353Z,95774.31
2022-12-13T14:41:19.526Z,95739.19
2022-12-13T14:43:54.275Z,95753.41
2022-12-13T14:46:29.323Z,95770.72
2022-12-13T14:49:07.628Z,95739.19
2022-12-13T14:51:41.019Z,95797.97
2022-12-13T14:54:26.107Z,95751.91
2022-12-13T14:57:03.255Z,95725.19
2022-12-13T14:59:36.629Z,95708.44
2022-12-13T15:02:19.059Z,95750.25
2022-12-13T15:05:07.555Z,95725.03
2022-12-13T15:07:44.390Z,95735.56
2022-12-13T15:10:28.858Z,95746.88
2022-12-13T15:13:29.937Z,95741.34
2022-12-13T15:16:11.287Z,95754.13
2022-12-13T15:19:11.174Z,95689.78
2022-12-13T15:21:45.822Z,95699.78
2022-12-13T15:24:26.529Z,95696.25
2022-12-13T15:27:04.618Z,95686.78
2022-12-13T15:29:42.162Z,95732.19
2022-12-13T15:32:23.447Z,95713.78
2022-12-13T15:34:57.691Z,95758.88
2022-12-13T15:37:35.430Z,95687.66
2022-12-13T15:40:17.031Z,95706.69
2022-12-13T15:42:58.773Z,95698.28
2022-12-13T15:45:37.386Z,95688.22
2022-12-13T15:48:25.536Z,95671.72
2022-12-13T15:51:29.489Z,95678.00
2022-12-13T15:54:25.469Z,95733.91
2022-12-13T15:57:06.163Z,95711.66
2022-12-13T15:59:40.363Z,95691.91
2022-12-13T16:02:26.664Z,95694.59
2022-12-13T16:05:23.529Z,95620.03
2022-12-13T16:08:14.123Z,95730.44
2022-12-13T16:10:50.912Z,95734.16
2022-12-13T16:13:27.838Z,95680.50
2022-12-13T16:16:09.539Z,95659.16
2022-12-13T16:18:56.798Z,95715.81
2022-12-13T16:21:35.317Z,95666.09
2022-12-13T16:24:07.907Z,95691.34
2022-12-13T16:26:39.889Z,95648.28
2022-12-13T16:29:16.844Z,95641.06
2022-12-13T16:31:51.135Z,95646.00
2022-12-13T16:34:29.347Z,95667.22
2022-12-13T16:37:02.563Z,95639.94
2022-12-13T16:39:43.422Z,95671.16
2022-12-13T16:42:27.007Z,95664.13
2022-12-13T16:45:32.296Z,95637.78
2022-12-13T16:48:02.497Z,95641.75
2022-12-13T16:50:34.787Z,95643.13
2022-12-13T16:53:09.041Z,95662.28
2022-12-13T16:55:43.649Z,95720.34
2022-12-13T16:58:30.953Z,95642.63
2022-12-13T17:01:16.894Z,95674.47
2022-12-13T17:03:57.008Z,95651.09
2022-12-13T17:07:00.014Z,95630.41
2022-12-13T17:09:32.352Z,95670.94
2022-12-13T17:12:13.455Z,95648.50
2022-12-13T17:14:50.938Z,95589.66
2022-12-13T17:17:23.747Z,95721.31
2022-12-13T17:20:01.080Z,95674.66
2022-12-13T17:22:35.536Z,95664.03
2022-12-13T17:25:11.490Z,95625.84
2022-12-13T17:27:45.671Z,95640.03
2022-12-13T17:30:22.177Z,95498.28
2022-12-13T17:32:55.282Z,95657.75
2022-12-13T17:35:41.267Z,95691.84
2022-12-13T17:38:24.215Z,95659.94
2022-12-13T17:41:00.531Z,95620.81
2022-12-13T17:43:35.880Z,95657.56
2022-12-13T17:46:14.466Z,95771.19
2022-12-13T17:48:54.376Z,95637.78
2022-12-13T17:51:30.927Z,95703.69
2022-12-13T17:54:13.355Z,95672.38
2022-12-13T17:56:53.012Z,95640.84
2022-12-13T17:59:29.878Z,95631.41
2022-12-13T18:02:09.420Z,95663.41
2022-12-13T18:04:46.913Z,95591.91
2022-12-13T18:07:23.895Z,95658.97
2022-12-13T18:10:02.289Z,95623.56
2022-12-13T18:12:42.954Z,95697.50
2022-12-13T18:15:17.140Z,95600.50
2022-12-13T18:20:50.600Z,95615.59
2022-12-13T18:23:44.285Z,95586.63
2022-12-13T18:26:29.667Z,95620.25
2022-12-13T18:29:03.870Z,95611.78
2022-12-13T18:31:40.000Z,95603.13
2022-12-13T18:34:18.558Z,95646.00
2022-12-13T18:36:54.393Z,95628.03
2022-12-13T18:39:35.902Z,95643.72
2022-12-13T18:42:07.575Z,95639.56
2022-12-13T18:44:43.921Z,95692.94
2022-12-13T18:47:32.067Z,95675.72
2022-12-13T18:50:09.744Z,95652.84
2022-12-13T18:52:44.331Z,95642.84
2022-12-13T18:55:28.831Z,95628.25
2022-12-13T18:58:08.982Z,95625.19
2022-12-13T19:00:42.096Z,95649.28
2022-12-13T19:03:16.258Z,95612.94
2022-12-13T19:06:00.155Z,95633.22
2022-12-13T19:08:31.502Z,95591.59
2022-12-13T19:11:06.203Z,95574.91
2022-12-13T19:13:44.422Z,95599.94
2022-12-13T19:16:19.598Z,95570.19
2022-12-13T19:18:53.488Z,95634.88
2022-12-13T19:21:26.045Z,95615.31
2022-12-13T19:24:01.346Z,95631.59
2022-12-13T19:26:37.589Z,95612.13
2022-12-13T19:29:11.384Z,95608.94
2022-12-13T19:31:44.492Z,95595.59
2022-12-13T19:34:17.135Z,95622.47
2022-12-13T19:36:52.081Z,95604.63
2022-12-13T19:39:29.369Z,95553.72
2022-12-13T19:42:07.084Z,95593.13
2022-12-13T19:44:44.048Z,95536.28
2022-12-13T19:47:17.139Z,95597.00
2022-12-13T19:50:00.242Z,95563.63
2022-12-13T19:52:34.049Z,95544.44
2022-12-13T19:55:12.416Z,95499.50
2022-12-13T19:57:46.601Z,95548.59
2022-12-13T20:00:20.880Z,95506.94
2022-12-13T20:02:56.326Z,95495.19
2022-12-13T20:05:33.646Z,95572.91
2022-12-13T20:08:11.043Z,95505.59
2022-12-13T20:10:45.836Z,95530.50
2022-12-13T20:13:24.350Z,95535.81
2022-12-13T20:15:57.605Z,95554.16
2022-12-13T20:18:29.434Z,95493.03
2022-12-13T20:21:12.528Z,95487.13
2022-12-13T20:23:50.011Z,95539.50
2022-12-13T20:26:30.324Z,95471.34
2022-12-13T20:29:06.665Z,95524.03
2022-12-13T20:31:48.333Z,95410.91
2022-12-13T20:34:28.127Z,95504.72
2022-12-13T20:37:04.904Z,95491.72
2022-12-13T20:39:38.487Z,95524.44
2022-12-13T20:42:10.769Z,95471.97
2022-12-13T20:44:52.570Z,95486.72
2022-12-13T20:47:28.546Z,95474.03
2022-12-13T20:50:04.871Z,95450.53
2022-12-13T20:52:36.732Z,95500.53
2022-12-13T20:55:10.950Z,95463.28
2022-12-13T20:57:47.930Z,95464.16
2022-12-13T21:00:27.839Z,95484.56
2022-12-13T21:02:59.967Z,95443.56
2022-12-13T21:06:03.245Z,95484.13
2022-12-13T21:09:05.273Z,95466.06
2022-12-13T21:11:43.752Z,95474.84
2022-12-13T21:14:23.091Z,95484.75
2022-12-13T21:17:05.192Z,95465.66
2022-12-13T21:19:41.537Z,95439.09
2022-12-13T21:22:24.169Z,95392.78
2022-12-13T21:25:01.955Z,95441.53
2022-12-13T21:27:35.879Z,95520.25
2022-12-13T21:30:13.763Z,95426.78
2022-12-13T21:32:53.040Z,95470.81
2022-12-13T21:35:30.418Z,95444.84
2022-12-13T21:38:08.514Z,95475.81
2022-12-13T21:40:39.023Z,95428.91
2022-12-13T21:43:16.721Z,95466.88
2022-12-13T21:45:53.145Z,95450.25
2022-12-13T21:48:30.808Z,95487.78
2022-12-13T21:51:03.487Z,95452.06
2022-12-13T21:53:35.663Z,95454.69
2022-12-13T21:56:27.876Z,95444.75
2022-12-13T21:59:18.866Z,95526.28
2022-12-13T22:02:15.259Z,95311.56
2022-12-13T22:04:57.017Z,95453.50
2022-12-13T22:07:32.068Z,95423.59
2022-12-13T22:10:13.661Z,95410.66
2022-12-13T22:12:50.517Z,95418.81
2022-12-13T22:15:22.231Z,95416.94
2022-12-13T22:18:04.652Z,95424.25
2022-12-13T22:20:47.682Z,95413.63
2022-12-13T22:23:24.294Z,95433.56
2022-12-13T22:25:56.395Z,95424.16
2022-12-13T22:28:39.209Z,95391.19
2022-12-13T22:31:18.657Z,95414.63
2022-12-13T22:33:50.563Z,95430.00
2022-12-13T22:36:27.705Z,95436.84
2022-12-13T22:39:07.414Z,95371.88
2022-12-13T22:41:41.711Z,95415.00
2022-12-13T22:44:15.951Z,95385.72
2022-12-13T22:46:57.211Z,95416.94
2022-12-13T22:49:29.482Z,95372.19
2022-12-13T22:52:09.867Z,95367.75
2022-12-13T22:54:48.159Z,95374.75
2022-12-13T22:57:21.468Z,95367.19
2022-12-13T22:59:54.130Z,95373.22
2022-12-13T23:02:32.418Z,95375.75
2022-12-13T23:05:08.725Z,95388.44
2022-12-13T23:07:50.794Z,95376.88
2022-12-13T23:10:56.668Z,95329.44
2022-12-13T23:13:37.026Z,95381.19
2022-12-13T23:16:18.739Z,95367.41
2022-12-13T23:18:50.845Z,95361.00
2022-12-13T23:21:23.679Z,95324.06
2022-12-13T23:24:02.414Z,95351.81
2022-12-13T23:26:41.954Z,95371.56
2022-12-13T23:29:15.850Z,95341.38
2022-12-13T23:31:50.485Z,95346.28
2022-12-13T23:34:24.398Z,95364.41
2022-12-13T23:37:02.403Z,95384.91
2022-12-13T23:39:39.076Z,95373.97
2022-12-13T23:42:13.580Z,95347.25
2022-12-13T23:44:50.909Z,95343.06
2022-12-13T23:47:23.103Z,95365.31
2022-12-13T23:50:04.012Z,95352.88
2022-12-13T23:52:46.543Z,95347.00
2022-12-13T23:55:24.734Z,95297.50
2022-12-13T23:58:08.185Z,95358.69
